createdAt,value
2019-05-14T00:02:07.744Z,4.20
2019-05-14T00:04:44.931Z,4.10
2019-05-14T00:07:22.460Z,4.20
2019-05-14T00:10:01.196Z,4.10
2019-05-14T00:12:38.390Z,4.10
2019-05-14T00:15:15.535Z,4.10
2019-05-14T00:17:52.641Z,4.10
2019-05-14T00:20:31.449Z,4.10
2019-05-14T00:23:08.778Z,4.10
2019-05-14T00:25:45.867Z,4.10
2019-05-14T00:28:23.067Z,4.10
2019-05-14T00:31:02.632Z,4.10
2019-05-14T00:33:39.278Z,4.00
2019-05-14T00:36:16.418Z,4.00
2019-05-14T00:38:54.091Z,4.00
2019-05-14T00:41:31.302Z,4.00
2019-05-14T00:44:08.339Z,3.90
2019-05-14T00:46:45.485Z,3.90
2019-05-14T00:49:22.579Z,3.90
2019-05-14T00:52:02.070Z,3.90
2019-05-14T00:54:42.126Z,3.90
2019-05-14T00:57:21.166Z,3.90
2019-05-14T00:59:58.046Z,3.90
2019-05-14T01:02:35.123Z,3.90
2019-05-14T01:05:12.605Z,3.90
2019-05-14T01:07:51.409Z,3.90
2019-05-14T01:10:28.491Z,3.80
2019-05-14T01:13:05.600Z,3.80
2019-05-14T01:15:42.743Z,3.80
2019-05-14T01:18:21.722Z,3.70
2019-05-14T01:21:00.530Z,3.70
2019-05-14T01:23:37.317Z,3.60
2019-05-14T01:26:14.402Z,3.50
2019-05-14T01:28:51.576Z,3.50
2019-05-14T01:31:31.278Z,3.50
2019-05-14T01:34:07.550Z,3.40
2019-05-14T01:36:44.807Z,3.40
2019-05-14T01:39:21.983Z,3.40
2019-05-14T01:42:02.666Z,3.40
2019-05-14T01:44:41.258Z,3.40
2019-05-14T01:47:18.607Z,3.40
2019-05-14T01:49:55.777Z,3.40
2019-05-14T01:52:32.866Z,3.30
2019-05-14T01:55:11.405Z,3.30
2019-05-14T01:57:48.631Z,3.20
2019-05-14T02:00:25.809Z,3.20
2019-05-14T02:03:02.870Z,3.20
2019-05-14T02:05:41.642Z,3.20
2019-05-14T02:08:18.809Z,3.10
2019-05-14T02:10:55.958Z,3.10
2019-05-14T02:13:33.070Z,3.10
2019-05-14T02:16:12.933Z,3.10
2019-05-14T02:18:48.858Z,3.00
2019-05-14T02:21:25.999Z,3.00
2019-05-14T02:24:03.165Z,3.00
2019-05-14T02:26:42.437Z,3.00
2019-05-14T02:29:21.282Z,3.00
2019-05-14T02:31:58.977Z,3.00
2019-05-14T02:34:39.432Z,3.00
2019-05-14T02:37:14.923Z,3.10
2019-05-14T02:39:52.023Z,3.00
2019-05-14T02:42:29.268Z,3.00
2019-05-14T02:45:08.992Z,3.00
2019-05-14T02:47:49.387Z,2.90
2019-05-14T02:50:25.092Z,2.90
2019-05-14T02:53:02.204Z,2.90
2019-05-14T02:55:39.212Z,2.90
2019-05-14T02:58:20.221Z,2.90
2019-05-14T03:00:55.129Z,2.90
2019-05-14T03:03:32.249Z,2.90
2019-05-14T03:06:09.611Z,2.80
2019-05-14T03:08:49.275Z,2.80
2019-05-14T03:11:25.534Z,2.70
2019-05-14T03:14:02.919Z,2.70
2019-05-14T03:16:40.629Z,2.70
2019-05-14T03:19:19.658Z,2.70
2019-05-14T03:21:59.981Z,2.60
2019-05-14T03:24:35.427Z,2.60
2019-05-14T03:27:12.500Z,2.60
2019-05-14T03:29:50.273Z,2.60
2019-05-14T03:32:32.429Z,2.60
2019-05-14T03:35:12.380Z,2.60
2019-05-14T03:37:45.520Z,2.70
2019-05-14T03:40:22.659Z,2.70
2019-05-14T03:43:00.089Z,2.70
2019-05-14T03:45:39.173Z,2.80
2019-05-14T03:48:18.797Z,2.90
2019-05-14T03:50:54.799Z,3.00
2019-05-14T03:53:49.420Z,3.00
2019-05-14T03:56:10.712Z,3.20
2019-05-14T03:58:49.508Z,3.20
2019-05-14T04:01:29.607Z,3.30
2019-05-14T04:04:05.530Z,3.40
2019-05-14T04:06:42.751Z,3.50
2019-05-14T04:09:20.362Z,3.60
2019-05-14T04:11:59.423Z,3.70
2019-05-14T04:14:39.660Z,3.80
2019-05-14T04:17:25.954Z,3.90
2019-05-14T04:19:55.282Z,4.00
2019-05-14T04:22:32.951Z,4.10
2019-05-14T04:25:11.055Z,4.20
2019-05-14T04:27:49.395Z,4.30
2019-05-14T04:30:40.044Z,4.40
2019-05-14T04:33:18.930Z,4.40
2019-05-14T04:35:59.956Z,4.40
2019-05-14T04:38:36.166Z,4.40
2019-05-14T04:41:13.355Z,4.50
2019-05-14T04:43:50.571Z,4.50
2019-05-14T04:46:30.239Z,4.60
2019-05-14T04:49:09.348Z,4.70
2019-05-14T04:51:45.341Z,4.80
2019-05-14T04:54:22.433Z,4.90
2019-05-14T04:57:00.139Z,5.00
2019-05-14T04:59:39.645Z,5.10
2019-05-14T05:02:18.963Z,5.20
2019-05-14T05:04:54.836Z,5.30
2019-05-14T05:07:32.067Z,5.30
2019-05-14T05:10:10.099Z,5.40
2019-05-14T05:12:49.467Z,5.40
2019-05-14T05:15:29.071Z,5.40
2019-05-14T05:18:05.415Z,5.50
2019-05-14T05:20:42.572Z,5.50
2019-05-14T05:23:19.774Z,5.60
2019-05-14T05:25:59.381Z,5.70
2019-05-14T05:28:38.851Z,5.70
2019-05-14T05:31:15.355Z,5.80
2019-05-14T05:33:52.566Z,5.80
2019-05-14T05:36:29.814Z,5.90
2019-05-14T05:39:08.550Z,6.00
2019-05-14T05:41:49.255Z,6.10
2019-05-14T05:44:24.709Z,6.10
2019-05-14T05:47:01.825Z,6.20
2019-05-14T05:49:39.247Z,6.30
2019-05-14T05:52:18.914Z,6.30
2019-05-14T05:54:58.377Z,6.40
2019-05-14T05:57:35.838Z,6.50
2019-05-14T06:00:13.029Z,6.50
2019-05-14T06:02:51.819Z,6.50
2019-05-14T06:05:30.024Z,6.50
2019-05-14T06:08:08.622Z,6.60
2019-05-14T06:10:45.832Z,6.70
2019-05-14T06:13:22.950Z,6.80
2019-05-14T06:16:00.032Z,6.90
2019-05-14T06:18:39.311Z,7.00
2019-05-14T06:21:18.660Z,7.10
2019-05-14T06:23:54.705Z,7.20
2019-05-14T06:26:31.849Z,7.20
2019-05-14T06:29:09.011Z,7.30
2019-05-14T06:31:46.157Z,7.40
2019-05-14T06:34:23.291Z,7.40
2019-05-14T06:37:00.395Z,7.50
2019-05-14T06:39:39.181Z,7.40
2019-05-14T06:42:19.068Z,7.40
2019-05-14T06:44:55.272Z,7.40
2019-05-14T06:47:32.382Z,7.40
2019-05-14T06:50:09.517Z,7.40
2019-05-14T06:52:49.004Z,7.50
2019-05-14T06:55:28.317Z,7.60
2019-05-14T06:58:05.603Z,7.70
2019-05-14T07:00:43.686Z,7.80
2019-05-14T07:03:20.894Z,8.00
2019-05-14T07:05:59.527Z,8.20
2019-05-14T07:08:39.258Z,8.60
2019-05-14T07:11:15.826Z,9.00
2019-05-14T07:13:52.974Z,9.30
2019-05-14T07:16:30.158Z,9.60
2019-05-14T07:19:09.427Z,9.70
2019-05-14T07:21:46.009Z,9.80
2019-05-14T07:24:23.154Z,9.80
2019-05-14T07:27:00.274Z,9.90
2019-05-14T07:29:38.825Z,10.00
2019-05-14T07:32:18.900Z,10.10
2019-05-14T07:34:54.976Z,10.30
2019-05-14T07:37:32.174Z,10.50
2019-05-14T07:40:09.386Z,10.60
2019-05-14T07:42:48.661Z,10.60
2019-05-14T07:45:25.366Z,10.70
2019-05-14T07:48:02.529Z,10.50
2019-05-14T07:50:40.064Z,10.40
2019-05-14T07:53:18.028Z,10.30
2019-05-14T07:55:55.174Z,10.00
2019-05-14T07:58:32.665Z,9.60
2019-05-14T08:01:09.747Z,9.40
2019-05-14T08:03:48.740Z,9.30
2019-05-14T08:06:28.123Z,9.20
2019-05-14T08:09:08.586Z,9.20
2019-05-14T08:11:47.903Z,9.20
2019-05-14T08:14:24.794Z,9.20
2019-05-14T08:17:02.042Z,9.30
2019-05-14T08:19:39.219Z,9.70
2019-05-14T08:22:18.561Z,10.30
2019-05-14T08:24:55.179Z,10.40
2019-05-14T08:27:32.335Z,10.30
2019-05-14T08:30:10.674Z,10.10
2019-05-14T08:32:48.959Z,9.80
2019-05-14T08:35:26.199Z,9.60
2019-05-14T08:38:07.654Z,9.40
2019-05-14T08:40:42.594Z,9.40
2019-05-14T08:43:19.669Z,9.20
2019-05-14T08:45:58.783Z,9.10
2019-05-14T08:48:35.552Z,8.90
2019-05-14T08:51:12.749Z,8.70
2019-05-14T08:53:50.657Z,8.60
2019-05-14T08:56:28.282Z,8.40
2019-05-14T08:59:05.361Z,8.40
2019-05-14T09:01:57.349Z,8.40
2019-05-14T09:04:22.669Z,8.30
2019-05-14T09:07:00.104Z,8.30
2019-05-14T09:09:38.242Z,8.30
2019-05-14T09:12:15.602Z,8.20
2019-05-14T09:14:53.052Z,8.20
2019-05-14T09:17:30.229Z,8.30
2019-05-14T09:20:10.561Z,8.50
2019-05-14T09:22:48.815Z,8.50
2019-05-14T09:25:24.815Z,8.50
2019-05-14T09:28:02.546Z,8.50
2019-05-14T09:30:39.631Z,8.50
2019-05-14T09:33:18.932Z,8.50
2019-05-14T09:36:11.167Z,8.60
2019-05-14T09:38:34.299Z,8.60
2019-05-14T09:41:15.266Z,8.70
2019-05-14T09:43:50.194Z,8.80
2019-05-14T09:46:28.909Z,8.90
2019-05-14T09:49:08.084Z,9.00
2019-05-14T09:51:44.855Z,8.80
2019-05-14T09:54:21.883Z,8.40
2019-05-14T09:56:59.268Z,8.10
2019-05-14T09:59:38.468Z,7.80
2019-05-14T10:02:15.289Z,7.60
2019-05-14T10:04:52.593Z,7.50
2019-05-14T10:07:29.713Z,7.50
2019-05-14T10:10:06.942Z,7.40
2019-05-14T10:12:52.867Z,7.40
2019-05-14T10:15:22.870Z,7.50
2019-05-14T10:18:00.581Z,7.60
2019-05-14T10:20:45.356Z,7.80
2019-05-14T10:23:18.699Z,7.90
2019-05-14T10:25:55.251Z,8.00
2019-05-14T10:28:32.528Z,8.00
2019-05-14T10:31:12.907Z,8.00
2019-05-14T10:33:48.758Z,8.10
2019-05-14T10:36:25.863Z,8.00
2019-05-14T10:39:04.810Z,7.90
2019-05-14T10:41:41.887Z,7.90
2019-05-14T10:44:19.021Z,7.90
2019-05-14T10:46:58.154Z,8.00
2019-05-14T10:49:34.837Z,8.00
2019-05-14T10:52:11.950Z,8.00
2019-05-14T10:54:55.934Z,8.00
2019-05-14T10:57:28.954Z,8.10
2019-05-14T11:00:08.859Z,8.10
2019-05-14T11:02:45.304Z,8.10
2019-05-14T11:05:22.444Z,8.00
2019-05-14T11:07:59.636Z,7.90
2019-05-14T11:10:41.842Z,7.80
2019-05-14T11:13:15.496Z,7.70
2019-05-14T11:15:52.555Z,7.70
2019-05-14T11:18:29.996Z,7.60
2019-05-14T11:21:21.539Z,7.50
2019-05-14T11:23:45.842Z,7.50
2019-05-14T11:26:24.856Z,7.50
2019-05-14T11:29:01.674Z,7.40
2019-05-14T11:31:39.315Z,7.40
2019-05-14T11:34:19.033Z,7.40
2019-05-14T11:36:55.098Z,7.50
2019-05-14T11:39:32.166Z,7.60
2019-05-14T11:42:09.319Z,7.70
2019-05-14T11:44:48.673Z,7.70
2019-05-14T11:47:25.131Z,7.70
2019-05-14T11:50:02.303Z,7.70
2019-05-14T11:52:39.386Z,7.70
2019-05-14T11:55:18.911Z,7.80
2019-05-14T11:57:58.194Z,7.80
2019-05-14T12:00:34.903Z,7.80
2019-05-14T12:03:11.950Z,7.70
2019-05-14T12:05:49.756Z,7.70
2019-05-14T12:08:28.798Z,7.60
2019-05-14T12:11:08.614Z,7.60
2019-05-14T12:13:44.471Z,7.60
2019-05-14T12:16:21.619Z,7.70
2019-05-14T12:18:59.145Z,7.70
2019-05-14T12:21:36.455Z,7.70
2019-05-14T12:24:14.033Z,7.60
2019-05-14T12:26:51.123Z,7.60
2019-05-14T12:29:29.185Z,7.60
2019-05-14T12:32:11.863Z,7.60
2019-05-14T12:34:45.344Z,7.70
2019-05-14T12:37:22.443Z,7.70
2019-05-14T12:39:59.774Z,7.80
2019-05-14T12:42:39.170Z,7.80
2019-05-14T12:45:15.620Z,7.80
2019-05-14T12:47:52.698Z,7.80
2019-05-14T12:50:29.896Z,7.60
2019-05-14T12:53:08.382Z,7.30
2019-05-14T12:55:48.510Z,7.10
2019-05-14T12:58:24.388Z,7.10
2019-05-14T13:01:01.522Z,7.00
2019-05-14T13:03:38.636Z,7.00
2019-05-14T13:06:18.769Z,7.10
2019-05-14T13:08:58.460Z,7.30
2019-05-14T13:11:35.094Z,7.50
2019-05-14T13:14:12.226Z,7.80
2019-05-14T13:16:49.332Z,8.10
2019-05-14T13:19:28.374Z,8.40
2019-05-14T13:22:14.061Z,8.50
2019-05-14T13:24:46.229Z,8.50
2019-05-14T13:27:23.577Z,8.60
2019-05-14T13:30:04.968Z,8.60
2019-05-14T13:32:42.153Z,8.60
2019-05-14T13:35:19.886Z,8.60
2019-05-14T13:37:58.680Z,8.50
2019-05-14T13:40:35.876Z,8.60
2019-05-14T13:43:14.507Z,8.60
2019-05-14T13:45:51.815Z,8.70
2019-05-14T13:48:29.719Z,8.80
2019-05-14T13:51:08.973Z,8.80
2019-05-14T13:53:45.899Z,8.80
2019-05-14T13:56:23.049Z,8.80
2019-05-14T13:59:00.226Z,8.80
2019-05-14T14:01:37.611Z,8.80
2019-05-14T14:04:18.319Z,8.70
2019-05-14T14:06:58.559Z,8.70
2019-05-14T14:09:35.018Z,8.70
2019-05-14T14:12:12.289Z,8.60
2019-05-14T14:14:49.736Z,8.60
2019-05-14T14:17:30.869Z,8.60
2019-05-14T14:20:08.369Z,8.60
2019-05-14T14:22:45.772Z,8.60
2019-05-14T14:25:23.029Z,8.60
2019-05-14T14:28:00.547Z,8.50
2019-05-14T14:30:39.410Z,8.50
2019-05-14T14:33:18.626Z,8.50
2019-05-14T14:35:58.390Z,8.50
2019-05-14T14:38:35.122Z,8.50
2019-05-14T14:41:12.685Z,8.50
2019-05-14T14:43:53.259Z,8.40
2019-05-14T14:46:30.755Z,8.50
2019-05-14T14:49:10.802Z,8.40
2019-05-14T14:51:49.187Z,8.50
2019-05-14T14:54:28.680Z,8.50
2019-05-14T14:57:05.782Z,8.60
2019-05-14T14:59:43.214Z,8.60
2019-05-14T15:02:20.669Z,8.60
2019-05-14T15:04:59.617Z,8.70
2019-05-14T15:07:40.806Z,8.80
2019-05-14T15:10:16.067Z,8.80
2019-05-14T15:12:54.376Z,9.00
2019-05-14T15:15:32.283Z,9.00
2019-05-14T15:18:14.138Z,9.00
2019-05-14T15:20:51.602Z,9.00
2019-05-14T15:23:28.834Z,9.00
2019-05-14T15:26:11.592Z,9.00
2019-05-14T15:28:45.001Z,9.00
2019-05-14T15:31:22.356Z,9.00
2019-05-14T15:33:59.628Z,9.00
2019-05-14T15:36:41.347Z,9.00
2019-05-14T15:39:22.033Z,9.00
2019-05-14T15:41:55.467Z,9.00
2019-05-14T15:44:47.544Z,8.90
2019-05-14T15:47:11.785Z,8.90
2019-05-14T15:49:49.165Z,8.90
2019-05-14T15:52:28.657Z,8.90
2019-05-14T15:55:08.649Z,8.90
2019-05-14T15:57:45.539Z,8.90
2019-05-14T16:00:22.619Z,8.80
2019-05-14T16:03:00.364Z,8.80
2019-05-14T16:05:39.404Z,8.80
2019-05-14T16:08:22.168Z,8.80
2019-05-14T16:10:55.414Z,8.80
2019-05-14T16:13:32.508Z,8.80
2019-05-14T16:16:10.607Z,8.80
2019-05-14T16:18:48.265Z,8.80
2019-05-14T16:21:25.434Z,8.80
2019-05-14T16:24:03.521Z,8.80
2019-05-14T16:26:40.607Z,8.80
2019-05-14T16:29:19.260Z,8.80
2019-05-14T16:31:58.239Z,8.70
2019-05-14T16:34:35.406Z,8.70
2019-05-14T16:37:12.601Z,8.70
2019-05-14T16:39:49.941Z,8.70
2019-05-14T16:42:29.254Z,8.70
2019-05-14T16:45:05.887Z,8.70
2019-05-14T16:47:43.134Z,8.70
2019-05-14T16:50:20.312Z,8.70
2019-05-14T16:52:58.946Z,8.70
2019-05-14T16:55:38.520Z,8.70
2019-05-14T16:58:20.141Z,8.70
2019-05-14T17:00:58.866Z,8.70
2019-05-14T17:03:39.277Z,8.70
2019-05-14T17:06:15.050Z,8.70
2019-05-14T17:08:55.180Z,8.70
2019-05-14T17:11:32.323Z,8.80
2019-05-14T17:14:09.476Z,8.80
2019-05-14T17:16:48.394Z,8.80
2019-05-14T17:19:25.333Z,8.70
2019-05-14T17:22:02.722Z,8.80
2019-05-14T17:24:40.116Z,8.70
2019-05-14T17:27:17.306Z,8.70
2019-05-14T17:29:54.460Z,8.70
2019-05-14T17:32:31.618Z,8.60
2019-05-14T17:35:08.856Z,8.60
2019-05-14T17:37:48.186Z,8.50
2019-05-14T17:40:24.864Z,8.50
2019-05-14T17:43:01.983Z,8.40
2019-05-14T17:45:39.471Z,8.40
2019-05-14T17:48:18.313Z,8.30
2019-05-14T17:50:55.526Z,8.30
2019-05-14T17:53:32.835Z,8.30
2019-05-14T17:56:10.099Z,8.30
2019-05-14T17:58:48.996Z,8.30
2019-05-14T18:01:28.790Z,8.30
2019-05-14T18:04:05.061Z,8.30
2019-05-14T18:06:42.215Z,8.20
2019-05-14T18:09:19.839Z,8.20
2019-05-14T18:11:58.941Z,8.20
2019-05-14T18:14:38.596Z,8.10
2019-05-14T18:17:18.641Z,8.10
2019-05-14T18:19:55.772Z,8.00
2019-05-14T18:22:33.050Z,8.00
2019-05-14T18:25:10.187Z,7.90
2019-05-14T18:27:49.919Z,7.90
2019-05-14T18:30:28.671Z,7.90
2019-05-14T18:33:05.215Z,7.80
2019-05-14T18:35:46.455Z,7.80
2019-05-14T18:38:21.757Z,7.80
2019-05-14T18:40:58.998Z,7.80
2019-05-14T18:43:36.337Z,7.70
2019-05-14T18:46:13.915Z,7.70
2019-05-14T18:48:51.406Z,7.70
2019-05-14T18:51:29.019Z,7.60
2019-05-14T18:54:08.034Z,7.60
2019-05-14T18:56:45.831Z,7.60
2019-05-14T18:59:23.101Z,7.60
2019-05-14T19:02:00.265Z,7.50
2019-05-14T19:04:38.193Z,7.40
2019-05-14T19:07:15.753Z,7.40
2019-05-14T19:09:53.039Z,7.40
2019-05-14T19:12:30.330Z,7.30
2019-05-14T19:15:10.075Z,7.30
2019-05-14T19:17:51.262Z,7.30
2019-05-14T19:20:28.549Z,7.20
2019-05-14T19:23:07.988Z,7.20
2019-05-14T19:25:45.163Z,7.20
2019-05-14T19:28:22.429Z,7.20
2019-05-14T19:30:59.823Z,7.20
2019-05-14T19:33:38.680Z,7.20
2019-05-14T19:36:15.930Z,7.20
2019-05-14T19:38:58.284Z,7.30
2019-05-14T19:41:35.853Z,7.30
2019-05-14T19:44:12.986Z,7.30
2019-05-14T19:46:50.206Z,7.30
2019-05-14T19:49:28.791Z,7.30
2019-05-14T19:52:08.143Z,7.30
2019-05-14T19:54:45.264Z,7.30
2019-05-14T19:57:22.435Z,7.30
2019-05-14T19:59:59.668Z,7.30
2019-05-14T20:02:36.763Z,7.30
2019-05-14T20:05:14.001Z,7.40
2019-05-14T20:07:51.181Z,7.40
2019-05-14T20:10:29.252Z,7.40
2019-05-14T20:13:06.529Z,7.40
2019-05-14T20:15:43.714Z,7.40
2019-05-14T20:18:20.854Z,7.40
2019-05-14T20:20:59.115Z,7.40
2019-05-14T20:23:38.740Z,7.40
2019-05-14T20:26:15.935Z,7.40
2019-05-14T20:28:53.169Z,7.40
2019-05-14T20:31:30.291Z,7.40
2019-05-14T20:34:08.447Z,7.40
2019-05-14T20:36:48.070Z,7.40
2019-05-14T20:39:24.646Z,7.40
2019-05-14T20:42:02.410Z,7.40
2019-05-14T20:44:39.542Z,7.40
2019-05-14T20:47:18.871Z,7.40
2019-05-14T20:49:55.458Z,7.40
2019-05-14T20:52:32.655Z,7.30
2019-05-14T20:55:09.802Z,7.30
2019-05-14T20:57:48.742Z,7.30
2019-05-14T21:00:25.969Z,7.30
2019-05-14T21:03:03.103Z,7.20
2019-05-14T21:05:42.679Z,7.20
2019-05-14T21:08:19.825Z,7.20
2019-05-14T21:10:58.754Z,7.20
2019-05-14T21:13:42.799Z,7.10
2019-05-14T21:16:19.936Z,7.10
2019-05-14T21:18:59.233Z,7.00
2019-05-14T21:21:38.162Z,7.00
2019-05-14T21:24:14.956Z,6.90
2019-05-14T21:26:52.093Z,6.90
2019-05-14T21:29:30.609Z,6.90
2019-05-14T21:32:08.301Z,6.80
2019-05-14T21:34:45.438Z,6.80
2019-05-14T21:37:22.590Z,6.80
2019-05-14T21:39:59.707Z,6.80
2019-05-14T21:42:38.482Z,6.80
2019-05-14T21:45:17.996Z,6.80
2019-05-14T21:47:54.897Z,6.80
2019-05-14T21:50:32.807Z,6.70
2019-05-14T21:53:09.937Z,6.70
2019-05-14T21:55:48.368Z,6.70
2019-05-14T21:58:25.675Z,6.70
2019-05-14T22:01:02.876Z,6.70
2019-05-14T22:03:41.480Z,6.60
2019-05-14T22:06:18.880Z,6.60
2019-05-14T22:08:59.093Z,6.60
2019-05-14T22:11:35.984Z,6.60
2019-05-14T22:14:13.823Z,6.60
2019-05-14T22:16:51.207Z,6.50
2019-05-14T22:19:28.703Z,6.50
2019-05-14T22:22:08.051Z,6.50
2019-05-14T22:24:48.902Z,6.60
2019-05-14T22:27:28.115Z,6.50
2019-05-14T22:30:10.365Z,6.60
2019-05-14T22:32:48.744Z,6.60
2019-05-14T22:35:28.332Z,6.50
2019-05-14T22:38:04.787Z,6.50
2019-05-14T22:40:42.084Z,6.50
2019-05-14T22:43:19.308Z,6.50
2019-05-14T22:45:58.911Z,6.50
2019-05-14T22:48:35.475Z,6.40
2019-05-14T22:51:12.578Z,6.40
2019-05-14T22:53:49.634Z,6.40
2019-05-14T22:56:28.055Z,6.30
2019-05-14T22:59:05.488Z,6.40
2019-05-14T23:01:43.088Z,6.30
2019-05-14T23:04:20.262Z,6.30
2019-05-14T23:06:58.667Z,6.30
2019-05-14T23:09:35.922Z,6.30
2019-05-14T23:12:13.008Z,6.30
2019-05-14T23:14:50.165Z,6.30
2019-05-14T23:17:28.079Z,6.30
2019-05-14T23:20:06.274Z,6.30
2019-05-14T23:22:43.357Z,6.20
2019-05-14T23:25:20.487Z,6.20
2019-05-14T23:27:58.948Z,6.20
2019-05-14T23:30:38.524Z,6.20
2019-05-14T23:33:14.911Z,6.20
2019-05-14T23:35:52.065Z,6.20
2019-05-14T23:38:29.190Z,6.20
2019-05-14T23:41:08.466Z,6.20
2019-05-14T23:43:45.041Z,6.20
2019-05-14T23:46:22.118Z,6.20
2019-05-14T23:48:59.367Z,6.20
2019-05-14T23:51:38.374Z,6.10
2019-05-14T23:54:22.023Z,6.10
2019-05-14T23:56:59.083Z,6.10
2019-05-14T23:59:36.404Z,6.10
